Latest Weather Observations for White Cliffs AWS

IDN60801

Issued at 6:13 am EST Sunday 18 April 2021 (issued every 10 minutes, with the page automatically refreshed every 10 minutes)

About weather observations | Map of weather stations | Latest weather observations for NSW | Other Formats
Station Details ID: 046129 Name: WHITE CLIFFS AWS Lat: -30.85 Lon: 143.07 Height: 158.0 m
Data from the previous 72 hours. | See also: Recent months at White Cliffs AWS
Date/Time
EST
Temp
°C
App
Temp
°C
Dew
Point
°C
Rel
Hum
%
Delta-T
°C
Wind Press
QNH
hPa
Press
MSL
hPa
Rain since
9am
mm
Dir  Spd
km/h
Gust
km/h
Spd
kts
Gust
kts
18/06:00am 9.5 4.7 0.4 53 3.7 S 15 17 8 9 1024.0 1023.5 0.0
18/05:30am 9.5 4.3 0.4 53 3.7 S 17 17 9 9 1023.7 1023.2 0.0
18/05:00am 8.9 4.5 0.1 54 3.5 S 13 17 7 9 1023.7 1023.2 0.0
18/04:30am 9.3 4.8 0.0 52 3.7 SSW 13 15 7 8 1023.7 1023.2 0.0
18/04:00am 9.8 5.0 0.2 51 3.9 S 15 17 8 9 1023.6 1023.1 0.0
18/03:30am 9.8 5.0 -0.1 50 4.0 S 15 17 8 9 1023.7 1023.2 0.0
18/03:00am 9.9 5.0 -0.3 49 4.1 SSW 15 17 8 9 1023.7 1023.2 0.0
18/02:30am 10.3 5.8 -0.2 48 4.3 S 13 17 7 9 1024.0 1023.5 0.0
18/02:00am 11.1 6.3 -0.1 46 4.6 S 15 17 8 9 1024.2 1023.7 0.0
18/01:30am 11.9 6.7 0.1 44 4.9 S 17 20 9 11 1024.2 1023.7 0.0
18/01:00am 12.5 6.7 0.0 42 5.2 S 20 24 11 13 1024.2 1023.7 0.0
18/12:30am 12.4 7.2 -0.1 42 5.2 S 17 20 9 11 1024.4 1023.9 0.0
18/12:00am 12.3 7.0 -0.6 41 5.2 S 17 19 9 10 1024.7 1024.2 0.0
 
Date/Time
EST
Temp
°C
App
Temp
°C
Dew
Point
°C
Rel
Hum
%
Delta-T
°C
Wind Press
QNH
hPa
Press
MSL
hPa
Rain since
9am
mm
Dir  Spd
km/h
Gust
km/h
Spd
kts
Gust
kts
17/11:30pm 12.7 7.4 -0.5 40 5.4 S 17 19 9 10 1025.0 1024.5 0.0
17/11:00pm 12.4 7.8 -1.1 39 5.4 S 13 15 7 8 1025.1 1024.6 0.0
17/10:30pm 12.6 8.3 -1.7 37 5.7 S 11 11 6 6 1025.2 1024.7 0.0
17/10:00pm 13.7 9.1 -1.1 36 6.0 S 13 15 7 8 1025.1 1024.6 0.0
17/09:30pm 14.1 9.5 -1.1 35 6.3 S 13 13 7 7 1025.0 1024.5 0.0
17/09:00pm 14.7 10.5 -1.0 34 6.5 SSE 11 15 6 8 1024.8 1024.3 0.0
17/08:30pm 15.4 11.5 -1.2 32 6.9 SSE 9 13 5 7 1024.7 1024.2 0.0
17/08:00pm 16.4 11.8 -0.8 31 7.3 SSE 13 15 7 8 1024.4 1023.9 0.0
17/07:30pm 17.4 12.5 -0.8 29 7.8 SSE 15 19 8 10 1024.1 1023.6 0.0
17/07:00pm 18.0 12.7 -0.8 28 8.1 S 17 20 9 11 1023.8 1023.3 0.0
17/06:30pm 18.8 12.9 -1.1 26 8.6 S 20 28 11 15 1023.4 1022.9 0.0
17/06:00pm 19.6 12.8 -1.5 24 9.0 S 24 32 13 17 1023.0 1022.6 0.0
17/05:30pm 20.3 13.2 -1.5 23 9.4 S 26 35 14 19 1022.9 1022.5 0.0
17/05:00pm 20.8 14.0 -1.7 22 9.7 S 24 33 13 18 1022.7 1022.3 0.0
17/04:30pm 21.6 14.5 -1.6 21 10.1 S 26 39 14 21 1022.6 1022.2 0.0
17/04:00pm 21.5 13.9 -2.4 20 10.2 S 28 35 15 19 1022.5 1022.1 0.0
17/03:30pm 22.3 14.8 -1.7 20 10.5 S 28 39 15 21 1022.5 1022.1 0.0
17/03:00pm 21.3 13.7 -1.9 21 10.0 S 28 37 15 20 1022.7 1022.3 0.0
17/02:30pm 21.1 13.9 -2.0 21 10.0 S 26 35 14 19 1022.9 1022.5 0.0
17/02:00pm 21.9 15.0 -0.1 23 9.9 SSW 26 41 14 22 1023.4 1022.9 0.0
17/01:30pm 21.3 14.4 -0.1 24 9.6 S 26 46 14 25 1023.7 1023.2 0.0
17/01:24pm 20.9 13.6 0.2 25 9.3 SSW 28 46 15 25 1023.7 1023.2 0.0
17/01:00pm 20.1 13.6 0.0 26 8.9 S 24 33 13 18 1024.2 1023.7 0.0
17/12:30pm 19.9 12.7 0.4 27 8.7 S 28 37 15 20 1024.7 1024.2 0.0
17/12:00pm 20.2 13.1 1.6 29 8.5 S 28 41 15 22 1025.0 1024.5 0.0
17/11:30am 19.8 12.7 1.3 29 8.4 S 28 39 15 21 1025.5 1025.0 0.0
17/11:00am 18.8 11.7 1.3 31 7.9 SSE 28 35 15 19 1025.8 1025.3 0.0
17/10:30am 18.4 12.2 1.9 33 7.5 SSE 24 32 13 17 1025.9 1025.4 0.0
17/10:00am 17.7 12.2 1.7 34 7.2 SSE 20 26 11 14 1025.9 1025.4 0.0
17/09:30am 16.5 10.2 1.4 36 6.7 SE 24 30 13 16 1025.9 1025.4 0.0
17/09:00am 15.3 9.7 1.1 38 6.2 SSE 20 24 11 13 1026.0 1025.5 0.0
17/08:30am 14.2 9.2 1.5 42 5.5 S 17 22 9 12 1025.7 1025.2 0.0
17/08:00am 12.8 8.1 1.2 45 4.9 S 15 20 8 11 1025.5 1025.0 0.0
17/07:30am 11.4 6.7 1.1 49 4.3 S 15 15 8 8 1025.2 1024.7 0.0
17/07:00am 10.6 6.6 0.6 50 4.1 S 11 13 6 7 1025.0 1024.5 0.0
17/06:30am 11.2 8.0 0.6 48 4.4 SE 7 9 4 5 1024.8 1024.3 0.0
17/06:00am 11.5 9.7 1.2 49 4.3 CALM 0 0 0 0 1024.8 1024.3 0.0
17/05:30am 11.5 8.9 0.9 48 4.5 SSE 4 7 2 4 1024.5 1024.0 0.0
17/05:00am 11.7 8.2 1.1 48 4.5 SSW 9 11 5 6 1024.3 1023.8 0.0
17/04:30am 12.7 8.8 1.1 45 5.0 S 11 15 6 8 1024.0 1023.5 0.0
17/04:00am 13.3 9.0 1.3 44 5.1 S 13 17 7 9 1023.6 1023.1 0.0
17/03:30am 13.7 8.8 1.7 44 5.2 S 17 20 9 11 1023.3 1022.8 0.0
17/03:00am 14.0 8.8 2.3 45 5.2 S 19 22 10 12 1023.2 1022.7 0.0
17/02:30am 14.3 9.1 2.5 45 5.3 SSW 19 24 10 13 1023.4 1022.9 0.0
17/02:00am 14.6 9.8 2.8 45 5.3 SSW 17 20 9 11 1023.4 1022.9 0.0
17/01:30am 14.8 10.1 3.3 46 5.2 SSW 17 20 9 11 1023.3 1022.8 0.0
17/01:00am 15.6 10.6 3.4 44 5.6 SSW 19 22 10 12 1023.2 1022.7 0.0
17/12:30am 15.8 10.8 3.6 44 5.6 SSW 19 22 10 12 1022.9 1022.5 0.0
17/12:00am 16.0 11.0 3.8 44 5.7 SSW 19 20 10 11 1022.8 1022.4 0.0
 
Date/Time
EST
Temp
°C
App
Temp
°C
Dew
Point
°C
Rel
Hum
%
Delta-T
°C
Wind Press
QNH
hPa
Press
MSL
hPa
Rain since
9am
mm
Dir  Spd
km/h
Gust
km/h
Spd
kts
Gust
kts
16/11:30pm 16.4 11.8 3.8 43 5.9 SSW 17 20 9 11 1022.7 1022.3 0.0
16/11:00pm 17.0 12.4 3.7 41 6.2 SSW 17 20 9 11 1022.8 1022.4 0.0
16/10:30pm 17.9 12.9 3.4 38 6.8 SSW 19 20 10 11 1022.7 1022.3 0.0
16/10:00pm 19.1 14.1 3.7 36 7.3 S 19 22 10 12 1022.4 1022.0 0.0
16/09:30pm 19.6 14.4 3.7 35 7.6 S 20 24 11 13 1022.5 1022.1 0.0
16/09:00pm 19.6 14.7 4.1 36 7.4 S 19 22 10 12 1022.4 1022.0 0.0
16/08:30pm 19.7 14.7 3.8 35 7.6 S 19 22 10 12 1022.0 1021.5 0.0
16/08:00pm 20.1 15.1 3.8 34 7.8 S 19 22 10 12 1021.8 1021.3 0.0
16/07:30pm 20.7 15.7 3.4 32 8.3 S 19 22 10 12 1021.4 1020.9 0.0
16/07:00pm 21.2 16.6 3.9 32 8.4 S 17 26 9 14 1020.9 1020.4 0.0
16/06:30pm 21.5 16.8 3.2 30 8.8 SSE 17 20 9 11 1020.6 1020.1 0.0
16/06:00pm 22.0 16.9 3.2 29 9.0 SSE 19 26 10 14 1020.3 1019.8 0.0
16/05:30pm 22.5 18.2 3.1 28 9.4 SSE 15 24 8 13 1019.9 1019.4 0.0
16/05:00pm 22.7 18.0 3.3 28 9.4 S 17 24 9 13 1019.6 1019.1 0.0
16/04:30pm 22.8 19.7 3.4 28 9.4 SSE 9 22 5 12 1019.7 1019.2 0.0
16/04:00pm 23.2 18.5 3.2 27 9.7 SSE 17 26 9 14 1019.7 1019.2 0.0
16/03:30pm 22.9 17.8 2.9 27 9.6 SE 19 28 10 15 1019.6 1019.1 0.0
16/03:00pm 24.0 19.9 4.4 28 9.8 SSE 15 32 8 17 1019.7 1019.2 0.0
16/02:30pm 23.2 18.2 3.7 28 9.6 ESE 19 26 10 14 1019.9 1019.4 0.0
16/02:00pm 22.9 17.7 3.4 28 9.5 SE 20 35 11 19 1020.2 1019.7 0.0
16/01:30pm 23.2 19.1 4.2 29 9.4 ESE 15 26 8 14 1020.4 1019.9 0.0
16/01:00pm 22.2 17.5 3.3 29 9.1 SE 17 26 9 14 1020.9 1020.4 0.0
16/12:30pm 22.0 17.0 3.6 30 8.9 SE 19 28 10 15 1021.5 1021.0 0.0
16/12:00pm 22.1 18.0 4.2 31 8.8 SE 15 28 8 15 1021.9 1021.4 0.0
16/11:30am 21.4 16.6 4.9 34 8.2 SE 19 28 10 15 1022.5 1022.1 0.0
16/11:00am 20.1 15.7 4.6 36 7.5 SSE 17 20 9 11 1022.9 1022.5 0.0
16/10:30am 19.1 14.0 4.1 37 7.2 SE 20 26 11 14 1022.7 1022.3 0.0
16/10:00am 18.6 14.2 4.8 40 6.7 SE 17 22 9 12 1022.6 1022.2 0.0
16/09:30am 17.7 13.0 5.0 43 6.1 SSE 19 24 10 13 1022.5 1022.1 0.0
16/09:00am 17.1 11.8 4.8 44 5.9 SSE 22 30 12 16 1022.5 1022.1 0.0
16/08:30am 16.6 11.6 4.6 45 5.7 SSE 20 26 11 14 1022.3 1021.8 0.0
16/08:00am 15.7 10.3 4.7 48 5.2 S 22 28 12 15 1021.7 1021.2 0.0
16/07:30am 15.2 10.1 4.3 48 5.1 S 20 24 11 13 1021.4 1020.9 0.0
16/07:00am 15.2 10.7 4.3 48 5.1 S 17 20 9 11 1021.2 1020.7 0.0
16/06:30am 15.5 11.0 4.3 47 5.3 S 17 20 9 11 1020.8 1020.3 0.0
16/06:00am 15.6 11.5 4.3 47 5.3 S 15 19 8 10 1020.5 1020.0 0.0
16/05:30am 15.8 11.3 4.2 46 5.4 S 17 20 9 11 1020.0 1019.5 0.0
16/05:00am 15.8 10.9 4.2 46 5.4 S 19 20 10 11 1019.8 1019.3 0.0
16/04:30am 15.9 10.8 4.3 46 5.5 S 20 24 11 13 1019.3 1018.8 0.0
16/04:00am 16.1 11.0 4.2 45 5.6 S 20 26 11 14 1019.3 1018.8 0.0
16/03:30am 16.1 11.6 4.2 45 5.6 S 17 20 9 11 1019.8 1019.3 0.0
16/03:00am 16.2 11.7 4.3 45 5.6 SSW 17 20 9 11 1019.9 1019.4 0.0
16/02:30am 16.4 12.3 4.4 45 5.7 S 15 19 8 10 1019.7 1019.2 0.0
16/02:00am 16.5 13.1 4.2 44 5.8 S 11 15 6 8 1019.8 1019.3 0.0
16/01:30am 16.9 13.2 4.3 43 6.0 S 13 15 7 8 1020.0 1019.5 0.0
16/01:00am 17.2 13.8 4.2 42 6.1 SE 11 15 6 8 1019.1 1018.6 0.0
16/12:30am 17.5 13.7 4.1 41 6.4 S 13 17 7 9 1020.0 1019.5 0.0
16/12:00am 17.8 13.3 4.0 40 6.5 S 17 24 9 13 1020.1 1019.6 0.0
 
Date/Time
EST
Temp
°C
App
Temp
°C
Dew
Point
°C
Rel
Hum
%
Delta-T
°C
Wind Press
QNH
hPa
Press
MSL
hPa
Rain since
9am
mm
Dir  Spd
km/h
Gust
km/h
Spd
kts
Gust
kts
15/11:30pm 18.1 13.6 4.3 40 6.6 S 17 20 9 11 1019.9 1019.4 0.0
15/11:00pm 18.2 13.4 4.4 40 6.6 SSE 19 24 10 13 1019.6 1019.1 0.0
15/10:30pm 18.5 13.7 4.7 40 6.7 S 19 24 10 13 1020.0 1019.5 0.0
15/10:00pm 18.8 13.0 4.6 39 6.8 S 24 32 13 17 1020.3 1019.8 0.0
15/09:30pm 19.2 14.4 4.6 38 7.1 S 19 24 10 13 1020.2 1019.7 0.0
15/09:00pm 19.5 14.7 4.8 38 7.2 S 19 24 10 13 1020.1 1019.6 0.0
15/08:30pm 19.8 15.4 4.7 37 7.4 S 17 22 9 12 1020.1 1019.6 0.0
15/08:00pm 20.0 16.0 4.9 37 7.4 SSW 15 24 8 13 1019.7 1019.2 0.0
15/07:30pm 20.3 16.7 4.8 36 7.6 S 13 17 7 9 1019.1 1018.6 0.0
15/07:00pm 20.4 15.9 4.4 35 7.8 SSW 17 24 9 13 1019.0 1018.5 0.0
15/06:30pm 20.7 15.3 4.7 35 7.9 SSW 22 24 12 13 1018.8 1018.3 0.0
15/06:00pm 21.4 16.5 4.9 34 8.2 S 20 26 11 14 1018.1 1017.6 0.0
15/05:30pm 21.6 16.8 4.7 33 8.4 SSW 19 22 10 12 1017.9 1017.4 0.0
15/05:00pm 22.1 17.3 4.7 32 8.6 SSW 19 26 10 14 1017.6 1017.1 0.0
15/04:30pm 22.8 17.7 4.3 30 9.1 SSW 20 28 11 15 1017.3 1016.8 0.0
15/04:00pm 22.4 17.4 4.5 31 8.8 SSW 20 30 11 16 1017.2 1016.7 0.0
15/03:30pm 23.0 18.0 4.5 30 9.2 S 20 26 11 14 1017.1 1016.6 0.0
15/03:00pm 22.3 18.6 4.4 31 8.8 S 13 24 7 13 1017.4 1016.9 0.0
15/02:30pm 22.8 17.7 4.3 30 9.1 S 20 26 11 14 1017.3 1016.8 0.0
15/02:00pm 22.6 18.2 4.6 31 8.9 S 17 26 9 14 1017.4 1016.9 0.0
15/01:30pm 23.6 20.1 5.5 31 9.2 S 13 24 7 13 1017.8 1017.3 0.0
15/01:00pm 22.8 18.1 5.3 32 8.8 SSE 19 24 10 13 1017.9 1017.4 0.0
15/12:30pm 21.9 17.8 6.2 36 8.0 S 17 24 9 13 1018.7 1018.2 0.0
15/12:00pm 21.9 17.3 6.6 37 7.8 SSE 20 28 11 15 1019.0 1018.5 0.0
15/11:30am 20.3 15.7 6.3 40 7.1 SSE 20 33 11 18 1019.4 1018.9 0.0
15/11:00am 19.8 14.8 6.5 42 6.7 SSE 22 28 12 15 1019.8 1019.3 0.0
15/10:30am 20.2 15.5 7.6 44 6.5 SSE 22 28 12 15 1019.9 1019.4 0.0
15/10:00am 18.1 12.7 6.3 46 5.9 SSE 24 32 13 17 1020.2 1019.7 0.0
15/09:30am 18.0 12.6 6.5 47 5.7 S 24 30 13 16 1020.2 1019.7 0.0
15/09:00am 17.2 11.8 6.4 49 5.3 SSE 24 32 13 17 1020.0 1019.5 0.0
15/08:30am 16.4 10.5 5.7 49 5.2 SSE 26 33 14 18 1019.6 1019.1 0.0
15/08:00am 15.6 10.3 5.2 50 5.0 S 22 30 12 16 1019.2 1018.7 0.0
15/07:30am 14.9 9.2 4.9 51 4.7 S 24 30 13 16 1018.9 1018.4 0.0
15/07:00am 14.5 8.8 5.0 53 4.5 S 24 32 13 17 1018.2 1017.7 0.0
15/06:30am 14.4 9.1 5.0 53 4.4 S 22 30 12 16 1017.9 1017.4 0.0

Other formats

Comma delimited format used in spreadsheet applications
http://www.bom.gov.au/fwo/IDN60801/IDN60801.95699.axf

JavaScript Object Notation format (JSON) in row-major order
http://www.bom.gov.au/fwo/IDN60801/IDN60801.95699.json

Data quality

Most of these data are generated automatically and are frequently updated. Quality checks on data are not normally performed. It is possible for incorrect values to appear. Refer to information at About Latest Weather Observations and please check the disclaimer before using these data.